createdAt,value
2022-12-31T00:00:07.858Z,1.60
2022-12-31T00:02:35.085Z,1.72
2022-12-31T00:05:02.213Z,1.79
2022-12-31T00:07:29.014Z,1.87
2022-12-31T00:09:55.794Z,1.92
2022-12-31T00:12:22.608Z,2.01
2022-12-31T00:14:49.353Z,2.01
2022-12-31T00:17:16.133Z,2.08
2022-12-31T00:19:42.997Z,2.08
2022-12-31T00:22:10.123Z,2.14
2022-12-31T00:24:36.957Z,2.17
2022-12-31T00:27:03.835Z,2.19
2022-12-31T00:29:30.628Z,2.24
2022-12-31T00:31:57.389Z,2.27
2022-12-31T00:34:24.211Z,2.28
2022-12-31T00:36:51.129Z,2.29
2022-12-31T00:39:17.951Z,2.37
2022-12-31T00:41:44.951Z,2.38
2022-12-31T00:44:12.710Z,2.41
2022-12-31T00:49:05.537Z,2.43
2022-12-31T00:51:32.291Z,2.50
2022-12-31T00:53:59.176Z,2.52
2022-12-31T00:56:27.680Z,2.54
2022-12-31T00:58:54.617Z,2.58
2022-12-31T01:01:29.531Z,2.60
2022-12-31T01:03:59.912Z,2.64
2022-12-31T01:06:26.692Z,2.66
2022-12-31T01:08:54.093Z,2.69
2022-12-31T01:11:24.088Z,2.76
2022-12-31T01:14:11.160Z,2.80
2022-12-31T01:16:39.109Z,2.83
2022-12-31T01:19:08.331Z,2.88
2022-12-31T01:21:35.794Z,2.84
2022-12-31T01:24:02.607Z,2.89
2022-12-31T01:26:29.592Z,2.93
2022-12-31T01:28:56.407Z,2.96
2022-12-31T01:31:23.762Z,2.95
2022-12-31T01:33:51.393Z,2.96
2022-12-31T01:36:25.321Z,3.03
2022-12-31T01:38:53.525Z,3.05
2022-12-31T01:41:22.467Z,3.05
2022-12-31T01:43:56.420Z,3.11
2022-12-31T01:46:46.630Z,3.17
2022-12-31T01:49:20.246Z,3.17
2022-12-31T01:51:51.026Z,3.23
2022-12-31T01:54:18.610Z,3.22
2022-12-31T01:56:45.788Z,3.31
2022-12-31T01:59:12.688Z,3.38
2022-12-31T02:01:39.650Z,3.41
2022-12-31T02:04:08.952Z,3.48
2022-12-31T02:06:41.903Z,3.53
2022-12-31T02:09:09.054Z,3.57
2022-12-31T02:11:38.081Z,3.63
2022-12-31T02:14:09.259Z,3.65
2022-12-31T02:16:47.874Z,3.73
2022-12-31T02:19:38.951Z,3.76
2022-12-31T02:22:05.717Z,3.80
2022-12-31T02:25:09.913Z,3.81
2022-12-31T02:28:02.465Z,3.80
2022-12-31T02:30:31.307Z,3.75
2022-12-31T02:33:35.412Z,3.75
2022-12-31T02:36:05.173Z,3.70
2022-12-31T02:38:37.388Z,3.67
2022-12-31T02:41:04.273Z,3.65
2022-12-31T02:43:31.088Z,3.62
2022-12-31T02:46:19.690Z,3.61
2022-12-31T02:49:12.211Z,3.59
2022-12-31T02:51:50.872Z,3.61
2022-12-31T02:54:20.785Z,3.65
2022-12-31T02:57:09.436Z,3.66
2022-12-31T03:00:08.651Z,3.63
2022-12-31T03:02:35.688Z,3.61
2022-12-31T03:05:02.843Z,3.56
2022-12-31T03:07:33.027Z,3.58
2022-12-31T03:10:01.190Z,3.57
2022-12-31T03:12:48.501Z,3.52
2022-12-31T03:15:34.351Z,3.45
2022-12-31T03:18:39.330Z,3.39
2022-12-31T03:21:32.192Z,3.34
2022-12-31T03:24:17.312Z,3.34
2022-12-31T03:26:44.127Z,3.45
2022-12-31T03:29:10.888Z,3.50
2022-12-31T03:31:37.711Z,3.61
2022-12-31T03:34:04.538Z,3.71
2022-12-31T03:36:31.394Z,3.82
2022-12-31T03:38:58.214Z,3.90
2022-12-31T03:41:25.007Z,3.96
2022-12-31T03:43:51.810Z,4.00
2022-12-31T03:46:18.629Z,4.09
2022-12-31T03:48:45.450Z,4.12
2022-12-31T03:51:12.287Z,4.19
2022-12-31T03:53:39.113Z,4.24
2022-12-31T03:56:06.079Z,4.34
2022-12-31T03:58:32.907Z,4.35
2022-12-31T04:00:59.709Z,4.42
2022-12-31T04:03:26.657Z,4.49
2022-12-31T04:05:54.933Z,4.52
2022-12-31T04:08:21.788Z,4.55
2022-12-31T04:10:48.577Z,4.59
2022-12-31T04:13:15.357Z,4.61
2022-12-31T04:15:42.175Z,4.64
2022-12-31T04:18:08.975Z,4.68
2022-12-31T04:20:35.752Z,4.70
2022-12-31T04:23:02.533Z,4.71
2022-12-31T04:25:29.308Z,4.73
2022-12-31T04:27:56.092Z,4.70
2022-12-31T04:30:22.972Z,4.72
2022-12-31T04:32:49.748Z,4.76
2022-12-31T04:35:16.680Z,4.76
2022-12-31T04:37:43.449Z,4.77
2022-12-31T04:40:10.660Z,4.73
2022-12-31T04:42:37.466Z,4.73
2022-12-31T04:45:04.836Z,4.64
2022-12-31T04:47:31.609Z,4.59
2022-12-31T04:49:58.377Z,4.59
2022-12-31T04:52:25.182Z,4.59
2022-12-31T04:54:51.977Z,4.57
2022-12-31T04:57:18.750Z,4.56
2022-12-31T04:59:45.560Z,4.62
2022-12-31T05:02:12.565Z,4.66
2022-12-31T05:04:39.594Z,4.68
2022-12-31T05:07:06.446Z,4.71
2022-12-31T05:09:33.213Z,4.76
2022-12-31T05:12:00.139Z,4.77
2022-12-31T05:14:26.952Z,4.76
2022-12-31T05:16:53.880Z,4.75
2022-12-31T05:19:20.810Z,4.76
2022-12-31T05:22:07.510Z,4.80
2022-12-31T05:24:34.309Z,4.79
2022-12-31T05:27:01.076Z,4.86
2022-12-31T05:29:27.868Z,4.87
2022-12-31T05:31:54.689Z,4.90
2022-12-31T05:34:21.472Z,4.96
2022-12-31T05:36:48.249Z,4.99
2022-12-31T05:39:15.134Z,5.01
2022-12-31T05:41:41.892Z,5.05
2022-12-31T05:44:10.151Z,5.07
2022-12-31T05:46:36.933Z,5.07
2022-12-31T05:49:03.670Z,5.09
2022-12-31T05:51:30.467Z,5.11
2022-12-31T05:53:57.250Z,5.15
2022-12-31T05:56:24.068Z,5.14
2022-12-31T05:58:50.849Z,5.20
2022-12-31T06:01:17.693Z,5.21
2022-12-31T06:03:44.538Z,5.23
2022-12-31T06:06:11.371Z,5.23
2022-12-31T06:08:38.128Z,5.31
2022-12-31T06:11:05.109Z,5.32
2022-12-31T06:13:31.869Z,5.33
2022-12-31T06:15:58.853Z,5.31
2022-12-31T06:18:25.690Z,5.37
2022-12-31T06:20:52.690Z,5.38
2022-12-31T06:23:19.457Z,5.40
2022-12-31T06:25:46.228Z,5.35
2022-12-31T06:28:19.706Z,5.39
2022-12-31T06:30:47.452Z,5.43
2022-12-31T06:33:14.372Z,5.41
2022-12-31T06:35:41.207Z,5.41
2022-12-31T06:38:08.072Z,5.42
2022-12-31T06:40:37.646Z,5.37
2022-12-31T06:43:04.437Z,5.35
2022-12-31T06:45:31.249Z,5.35
2022-12-31T06:47:58.044Z,5.32
2022-12-31T06:50:24.825Z,5.28
2022-12-31T06:52:51.681Z,5.20
2022-12-31T06:55:18.757Z,5.13
2022-12-31T06:57:45.832Z,5.20
2022-12-31T07:00:13.367Z,5.24
2022-12-31T07:03:05.848Z,5.27
2022-12-31T07:05:51.118Z,5.32
2022-12-31T07:08:42.408Z,5.34
2022-12-31T07:11:19.634Z,5.36
2022-12-31T07:14:03.835Z,5.34
2022-12-31T07:16:48.610Z,5.35
2022-12-31T07:19:27.251Z,5.37
2022-12-31T07:21:54.470Z,5.36
2022-12-31T07:24:21.670Z,5.35
2022-12-31T07:26:57.010Z,5.39
2022-12-31T07:30:01.147Z,5.45
2022-12-31T07:32:52.377Z,5.48
2022-12-31T07:35:43.650Z,5.55
2022-12-31T07:38:42.769Z,5.59
2022-12-31T07:41:31.230Z,5.64
2022-12-31T07:44:08.607Z,5.66
2022-12-31T07:46:50.578Z,5.68
2022-12-31T07:49:17.735Z,5.73
2022-12-31T07:51:44.683Z,5.74
2022-12-31T07:54:14.083Z,5.82
2022-12-31T07:56:41.806Z,5.86
2022-12-31T07:59:36.361Z,5.94
2022-12-31T08:02:33.974Z,6.03
2022-12-31T08:05:05.722Z,6.08
2022-12-31T08:08:17.508Z,6.17
2022-12-31T08:11:07.171Z,6.26
2022-12-31T08:13:34.131Z,6.24
2022-12-31T08:16:02.036Z,6.33
2022-12-31T08:18:29.116Z,6.36
2022-12-31T08:21:03.470Z,6.40
2022-12-31T08:23:40.354Z,6.45
2022-12-31T08:26:30.269Z,6.48
2022-12-31T08:29:18.130Z,6.53
2022-12-31T08:32:17.726Z,6.54
2022-12-31T08:35:09.148Z,6.61
2022-12-31T08:37:41.956Z,6.60
2022-12-31T08:40:31.750Z,6.63
2022-12-31T08:43:26.176Z,6.62
2022-12-31T08:45:53.323Z,6.64
2022-12-31T08:48:30.054Z,6.68
2022-12-31T08:50:57.529Z,6.70
2022-12-31T08:53:24.672Z,6.71
2022-12-31T08:55:56.972Z,6.74
2022-12-31T08:58:45.290Z,6.78
2022-12-31T09:01:12.295Z,6.79
2022-12-31T09:03:55.829Z,6.86
2022-12-31T09:07:01.769Z,6.92
2022-12-31T09:10:03.012Z,6.96
2022-12-31T09:12:59.110Z,7.05
2022-12-31T09:15:45.830Z,7.08
2022-12-31T09:18:13.049Z,7.13
2022-12-31T09:20:43.367Z,7.15
2022-12-31T09:23:12.577Z,7.20
2022-12-31T09:25:45.754Z,7.23
2022-12-31T09:28:21.571Z,7.36
2022-12-31T09:30:58.915Z,7.38
2022-12-31T09:33:35.571Z,7.40
2022-12-31T09:36:05.856Z,7.40
2022-12-31T09:38:37.935Z,7.46
2022-12-31T09:41:17.469Z,7.45
2022-12-31T09:44:02.677Z,7.48
2022-12-31T09:47:23.847Z,7.51
2022-12-31T09:50:02.651Z,7.53
2022-12-31T09:52:54.248Z,7.57
2022-12-31T09:55:46.197Z,7.61
2022-12-31T09:58:17.076Z,7.64
2022-12-31T10:00:50.489Z,7.67
2022-12-31T10:03:35.952Z,7.70
2022-12-31T10:06:25.974Z,7.74
2022-12-31T10:09:11.611Z,7.77
2022-12-31T10:11:40.911Z,7.81
2022-12-31T10:14:47.555Z,7.84
2022-12-31T10:17:30.869Z,7.82
2022-12-31T10:20:05.992Z,7.84
2022-12-31T10:22:51.566Z,7.89
2022-12-31T10:25:38.476Z,7.88
2022-12-31T10:28:29.091Z,7.87
2022-12-31T10:31:08.940Z,7.89
2022-12-31T10:33:55.634Z,7.92
2022-12-31T10:36:59.950Z,7.95
2022-12-31T10:39:42.740Z,7.98
2022-12-31T10:42:31.050Z,8.01
2022-12-31T10:45:34.939Z,8.01
2022-12-31T10:48:26.052Z,8.03
2022-12-31T10:51:19.317Z,8.07
2022-12-31T10:54:12.396Z,8.11
2022-12-31T10:57:01.236Z,8.14
2022-12-31T10:59:46.829Z,8.22
2022-12-31T11:02:35.555Z,8.34
2022-12-31T11:05:39.570Z,8.51
2022-12-31T11:08:40.329Z,8.65
2022-12-31T11:11:31.562Z,8.71
2022-12-31T11:14:34.018Z,8.74
2022-12-31T11:17:12.831Z,8.82
2022-12-31T11:20:10.820Z,8.85
2022-12-31T11:23:16.169Z,8.84
2022-12-31T11:26:30.908Z,8.74
2022-12-31T11:29:03.885Z,8.72
2022-12-31T11:32:06.455Z,8.73
2022-12-31T11:34:58.155Z,8.78
2022-12-31T11:37:38.238Z,8.81
2022-12-31T11:40:42.247Z,8.83
2022-12-31T11:43:30.846Z,8.86
2022-12-31T11:46:32.856Z,8.87
2022-12-31T11:49:37.396Z,8.92
2022-12-31T11:52:16.015Z,8.99
2022-12-31T11:55:10.157Z,9.16
2022-12-31T11:57:38.128Z,9.32
2022-12-31T12:00:20.920Z,9.51
2022-12-31T12:02:51.446Z,9.68
2022-12-31T12:05:20.475Z,9.86
2022-12-31T12:07:48.378Z,9.99
2022-12-31T12:10:35.718Z,10.04
2022-12-31T12:13:27.985Z,10.14
2022-12-31T12:15:56.404Z,10.17
2022-12-31T12:18:47.191Z,10.18
2022-12-31T12:21:18.907Z,10.09
2022-12-31T12:24:07.031Z,10.00
2022-12-31T12:26:41.587Z,9.92
2022-12-31T12:29:12.973Z,9.81
2022-12-31T12:31:39.828Z,9.76
2022-12-31T12:34:07.052Z,9.71
2022-12-31T12:36:34.148Z,9.67
2022-12-31T12:39:02.996Z,9.64
2022-12-31T12:41:29.873Z,9.59
2022-12-31T12:44:07.290Z,9.50
2022-12-31T12:46:48.587Z,9.43
2022-12-31T12:49:30.015Z,9.36
2022-12-31T12:52:18.402Z,9.30
2022-12-31T12:54:48.164Z,9.22
2022-12-31T12:57:20.696Z,9.17
2022-12-31T13:00:16.650Z,9.12
2022-12-31T13:03:11.310Z,9.06
2022-12-31T13:06:03.026Z,9.02
2022-12-31T13:08:51.332Z,8.98
2022-12-31T13:11:39.848Z,8.94
2022-12-31T13:14:43.845Z,8.91
2022-12-31T13:17:32.413Z,8.90
2022-12-31T13:20:20.107Z,8.88
2022-12-31T13:22:52.308Z,8.87
2022-12-31T13:25:37.069Z,8.89
2022-12-31T13:28:05.637Z,8.87
2022-12-31T13:30:35.443Z,8.91
2022-12-31T13:33:07.852Z,8.95
2022-12-31T13:35:43.590Z,8.95
2022-12-31T13:38:34.989Z,8.99
2022-12-31T13:41:23.953Z,8.98
2022-12-31T13:44:13.717Z,9.01
2022-12-31T13:46:40.486Z,9.07
2022-12-31T13:49:37.539Z,9.06
2022-12-31T13:52:18.208Z,9.08
2022-12-31T13:55:06.193Z,9.06
2022-12-31T13:57:41.489Z,9.07
2022-12-31T14:00:28.754Z,9.11
2022-12-31T14:03:01.464Z,9.10
2022-12-31T14:05:37.933Z,9.08
2022-12-31T14:08:05.746Z,9.05
2022-12-31T14:10:51.159Z,9.12
2022-12-31T14:13:34.964Z,9.10
2022-12-31T14:16:04.820Z,9.11
2022-12-31T14:18:39.611Z,9.08
2022-12-31T14:21:14.151Z,9.10
2022-12-31T14:23:56.508Z,9.08
2022-12-31T14:26:46.952Z,9.09
2022-12-31T14:29:42.330Z,9.12
2022-12-31T14:32:12.231Z,9.14
2022-12-31T14:35:16.231Z,9.19
2022-12-31T14:37:47.105Z,9.20
2022-12-31T14:40:51.393Z,9.25
2022-12-31T14:43:42.972Z,9.29
2022-12-31T14:46:30.434Z,9.32
2022-12-31T14:49:18.950Z,9.28
2022-12-31T14:51:45.726Z,9.36
2022-12-31T14:54:29.525Z,9.35
2022-12-31T14:56:56.286Z,9.36
2022-12-31T14:59:34.500Z,9.36
2022-12-31T15:02:04.428Z,9.33
2022-12-31T15:04:51.071Z,9.29
2022-12-31T15:07:56.970Z,9.24
2022-12-31T15:11:01.931Z,9.20
2022-12-31T15:13:54.238Z,9.15
2022-12-31T15:16:26.929Z,9.24
2022-12-31T15:19:30.910Z,9.26
2022-12-31T15:22:04.373Z,9.21
2022-12-31T15:24:31.295Z,9.27
2022-12-31T15:27:00.016Z,9.25
2022-12-31T15:29:45.608Z,9.31
2022-12-31T15:32:20.224Z,9.29
2022-12-31T15:34:47.035Z,9.34
2022-12-31T15:37:33.687Z,9.39
2022-12-31T15:40:19.974Z,9.43
2022-12-31T15:43:08.171Z,9.40
2022-12-31T15:45:38.047Z,9.45
2022-12-31T15:48:32.470Z,9.50
2022-12-31T15:51:00.483Z,9.53
2022-12-31T15:53:33.828Z,9.61
2022-12-31T15:56:00.976Z,9.65
2022-12-31T15:58:30.504Z,9.66
2022-12-31T16:01:17.788Z,9.72
2022-12-31T16:03:50.174Z,9.76
2022-12-31T16:06:16.989Z,9.78
2022-12-31T16:08:45.157Z,9.83
2022-12-31T16:11:12.039Z,9.84
2022-12-31T16:13:44.376Z,9.85
2022-12-31T16:16:28.163Z,9.92
2022-12-31T16:18:55.532Z,9.92
2022-12-31T16:21:35.945Z,9.91
2022-12-31T16:24:07.392Z,9.94
2022-12-31T16:26:50.289Z,9.93
2022-12-31T16:29:17.851Z,9.92
2022-12-31T16:31:45.108Z,9.94
2022-12-31T16:34:22.056Z,9.91
2022-12-31T16:36:59.418Z,9.94
2022-12-31T16:39:27.394Z,9.97
2022-12-31T16:42:07.691Z,9.96
2022-12-31T16:44:34.660Z,10.04
2022-12-31T16:47:01.940Z,10.06
2022-12-31T16:49:30.153Z,10.05
2022-12-31T16:52:01.279Z,9.99
2022-12-31T16:54:35.874Z,9.90
2022-12-31T16:57:02.917Z,9.82
2022-12-31T16:59:44.411Z,9.71
2022-12-31T17:02:34.847Z,9.67
2022-12-31T17:05:01.770Z,9.58
2022-12-31T17:07:31.487Z,9.52
2022-12-31T17:10:09.371Z,9.43
2022-12-31T17:13:17.076Z,9.43
2022-12-31T17:15:48.725Z,9.42
2022-12-31T17:18:20.093Z,9.38
2022-12-31T17:20:47.053Z,9.37
2022-12-31T17:23:27.080Z,9.31
2022-12-31T17:26:07.789Z,9.28
2022-12-31T17:28:45.396Z,9.30
2022-12-31T17:31:43.331Z,9.38
2022-12-31T17:34:13.269Z,9.44
2022-12-31T17:36:58.440Z,9.48
2022-12-31T17:39:25.901Z,9.45
2022-12-31T17:41:55.432Z,9.53
2022-12-31T17:44:24.136Z,9.56
2022-12-31T17:46:51.008Z,9.59
2022-12-31T17:49:19.329Z,9.54
2022-12-31T17:51:47.924Z,9.49
2022-12-31T17:54:15.591Z,9.48
2022-12-31T17:56:42.465Z,9.57
2022-12-31T17:59:11.028Z,9.65
2022-12-31T18:01:37.977Z,9.76
2022-12-31T18:04:09.169Z,9.87
2022-12-31T18:06:35.978Z,9.93
2022-12-31T18:09:02.748Z,10.00
2022-12-31T18:11:29.591Z,9.99
2022-12-31T18:13:56.355Z,10.01
2022-12-31T18:16:23.242Z,10.00
2022-12-31T18:18:50.149Z,9.97
2022-12-31T18:21:36.216Z,9.92
2022-12-31T18:26:29.280Z,9.72
2022-12-31T18:29:00.393Z,9.61
2022-12-31T18:31:28.603Z,9.47
2022-12-31T18:33:56.232Z,9.38
2022-12-31T18:36:23.672Z,9.33
2022-12-31T18:38:50.555Z,9.28
2022-12-31T18:41:24.752Z,9.25
2022-12-31T18:43:51.618Z,9.20
2022-12-31T18:46:19.761Z,9.15
2022-12-31T18:48:46.728Z,9.17
2022-12-31T18:51:18.379Z,9.17
2022-12-31T18:53:45.248Z,9.24
2022-12-31T18:56:19.310Z,9.25
2022-12-31T18:58:46.151Z,9.35
2022-12-31T19:01:35.530Z,9.48
2022-12-31T19:04:12.564Z,9.56
2022-12-31T19:06:39.365Z,9.67
2022-12-31T19:09:13.250Z,9.69
2022-12-31T19:11:52.911Z,9.74
2022-12-31T19:14:23.114Z,9.68
2022-12-31T19:16:50.700Z,9.74
2022-12-31T19:19:17.753Z,9.84
2022-12-31T19:21:44.733Z,9.88
2022-12-31T19:24:21.373Z,9.94
2022-12-31T19:26:48.249Z,9.94
2022-12-31T19:29:19.451Z,9.97
2022-12-31T19:31:46.458Z,9.92
2022-12-31T19:34:13.292Z,9.89
2022-12-31T19:36:44.153Z,9.89
2022-12-31T19:39:15.195Z,9.88
2022-12-31T19:41:43.249Z,9.87
2022-12-31T19:44:19.509Z,9.88
2022-12-31T19:46:46.452Z,9.86
2022-12-31T19:49:13.849Z,9.89
2022-12-31T19:51:40.881Z,9.90
2022-12-31T19:54:07.917Z,9.94
2022-12-31T19:56:34.712Z,9.97
2022-12-31T19:59:08.650Z,10.04
2022-12-31T20:01:35.612Z,10.02
2022-12-31T20:04:02.684Z,10.04
2022-12-31T20:06:29.485Z,10.07
2022-12-31T20:08:56.410Z,10.11
2022-12-31T20:11:24.131Z,10.14
2022-12-31T20:13:52.429Z,10.14
2022-12-31T20:16:20.476Z,10.17
2022-12-31T20:18:47.627Z,10.21
2022-12-31T20:21:17.901Z,10.24
2022-12-31T20:23:44.844Z,10.25
2022-12-31T20:26:11.691Z,10.25
2022-12-31T20:28:38.772Z,10.23
2022-12-31T20:31:09.653Z,10.22
2022-12-31T20:33:36.511Z,10.24
2022-12-31T20:36:04.637Z,10.24
2022-12-31T20:38:32.159Z,10.26
2022-12-31T20:41:09.494Z,10.29
2022-12-31T20:43:36.650Z,10.27
2022-12-31T20:46:15.182Z,10.26
2022-12-31T20:48:43.220Z,10.24
2022-12-31T20:51:10.053Z,10.31
2022-12-31T20:53:36.849Z,10.29
2022-12-31T20:56:07.707Z,10.30
2022-12-31T20:58:34.816Z,10.31
2022-12-31T21:01:01.838Z,10.27
2022-12-31T21:04:03.657Z,10.27
2022-12-31T21:06:15.779Z,10.28
2022-12-31T21:08:42.654Z,10.25
2022-12-31T21:11:28.403Z,10.23
2022-12-31T21:13:56.042Z,10.22
2022-12-31T21:16:23.020Z,10.15
2022-12-31T21:18:49.868Z,10.09
2022-12-31T21:21:16.792Z,9.99
2022-12-31T21:23:43.604Z,9.97
2022-12-31T21:26:10.420Z,9.93
2022-12-31T21:28:37.235Z,9.94
2022-12-31T21:31:06.280Z,9.85
2022-12-31T21:33:33.154Z,9.77
2022-12-31T21:36:04.446Z,9.75
2022-12-31T21:38:31.892Z,9.74
2022-12-31T21:41:02.985Z,9.71
2022-12-31T21:43:29.891Z,9.71
2022-12-31T21:46:03.848Z,9.72
2022-12-31T21:48:30.851Z,9.72
2022-12-31T21:51:13.002Z,9.72
2022-12-31T21:53:40.299Z,9.73
2022-12-31T21:56:11.652Z,9.71
2022-12-31T21:58:40.202Z,9.72
2022-12-31T22:01:25.594Z,9.71
2022-12-31T22:03:52.510Z,9.73
2022-12-31T22:06:23.069Z,9.77
2022-12-31T22:08:54.121Z,9.76
2022-12-31T22:11:22.171Z,9.83
2022-12-31T22:13:49.122Z,9.77
2022-12-31T22:16:17.299Z,9.78
2022-12-31T22:18:44.510Z,9.81
2022-12-31T22:21:18.850Z,9.83
2022-12-31T22:23:47.897Z,9.83
2022-12-31T22:26:15.473Z,9.84
2022-12-31T22:28:43.138Z,9.91
2022-12-31T22:31:13.690Z,9.94
2022-12-31T22:33:40.569Z,9.88
2022-12-31T22:36:09.994Z,9.89
2022-12-31T22:38:36.809Z,9.99
2022-12-31T22:41:08.231Z,10.01
2022-12-31T22:43:36.409Z,10.00
2022-12-31T22:46:10.345Z,10.08
2022-12-31T22:48:37.763Z,10.14
2022-12-31T22:51:04.828Z,10.18
2022-12-31T22:53:31.716Z,10.20
2022-12-31T22:55:58.518Z,10.20
2022-12-31T22:58:25.811Z,10.16
2022-12-31T23:00:52.795Z,10.18
2022-12-31T23:03:19.655Z,10.15
2022-12-31T23:05:53.623Z,10.11
2022-12-31T23:08:23.655Z,10.08
2022-12-31T23:11:06.161Z,10.07
2022-12-31T23:13:58.869Z,10.09
2022-12-31T23:16:45.448Z,10.06
2022-12-31T23:19:30.766Z,10.10
2022-12-31T23:22:16.248Z,10.07
2022-12-31T23:24:43.096Z,10.09
2022-12-31T23:27:10.191Z,10.06
2022-12-31T23:29:46.831Z,10.03
2022-12-31T23:32:17.509Z,10.12
2022-12-31T23:34:45.089Z,10.11
2022-12-31T23:37:15.016Z,10.09
2022-12-31T23:39:42.117Z,10.03
2022-12-31T23:42:08.974Z,10.03
2022-12-31T23:44:35.762Z,10.01
2022-12-31T23:47:02.691Z,9.95
2022-12-31T23:49:30.175Z,9.85
2022-12-31T23:51:57.011Z,9.81
2022-12-31T23:54:23.853Z,9.80
2022-12-31T23:56:50.687Z,9.78
2022-12-31T23:59:18.533Z,9.75
